Country
Station

 

Weather  for  Mostar  -  Yugoslavia    Yugoslavia

  
24 °C (75 °F)
    
 
 

Current METAR for Mostar is :

LQMO 161300Z 30004KT 240V330 9999 FEW045 SCT056 24/13 Q1015

 

This is a report for Mostar - Yugoslavia.
 
The report was made 9 minutes ago, at 13:00 UTC .
The wind was blowing at a speed of 2.1 meters per second (4.6 miles per hour) from west/northwest (300°), varying between west/southwest (240°) and north/northwest (330°).
 
The temperature was 24 °C (75 °F), with a dew-point at 13 °C (55 °F).
The temperature felt like 26 °C (78 °F).
 
The atmospheric pressure was 1015 hPa (29.97 inHg).
The relative humidity was 50.2%.
 
There were a few clouds at a height of 1372 meters (4500 feet) and scattered clouds at a height of 1707 meters (5600 feet).
 
The overall visibility was greater than 10 kilometers (6.2 miles).
 

 
 
 
 

Country :   A   B   C   D   E   F   G   H   I   J   K   L   M   N   O   P   Q   R   S   T   U   V   W   Y   Z

 

Site Info  |  Disclaimer  |  Credits  |  Privacy
Contact us  |  Add to favorites
© 2013-2019 METARs - All rights reserved